CheckWX is a tool to help pilots better visualize weather data.  It is not intended as a substitute for an official pre-flight weather briefing.

09:57:25 UTC

CYGL METAR
La Grande Rivière Airport
La Grande Rivière, Canada
Current

57 mins ago

CYGL 210900Z 21008KT 15SM SCT180 M13/M16 A2970 RMK CI4 SLP077
Observed
Mar-21 @ 09:00 UTC
Wind
  • 210° at 8 KTS
Visibility
15 SM
Flight Rules
VFR
Cloud Levels
  • Scattered at 18,000' AGL
Temperature
-13°C / 9°F
Dewpoint
-16°C / 3°F
Humidity
78%
Altimeter
29.7" Hg
Pressure
1007.7 hPa
Previous

2 hours ago

CYGL 210800Z 21008KT 15SM FEW180 M12/M15 A2974 RMK CI1 SLP089
Observed
Mar-21 @ 08:00 UTC
Wind
  • 210° at 8 KTS
Visibility
15 SM
Flight Rules
VFR
Cloud Levels
  • Few at 18,000' AGL
Temperature
-12°C / 10°F
Dewpoint
-15°C / 5°F
Humidity
79%
Altimeter
29.74" Hg
Pressure
1008.9 hPa
Previous

3 hours ago

CYGL 210700Z 19009KT 15SM SKC M11/M16 A2977 RMK SLP101
Observed
Mar-21 @ 07:00 UTC
Wind
  • 190° at 9 KTS
Visibility
15 SM
Flight Rules
VFR
Cloud Levels
  • Clear skies
Temperature
-11°C / 12°F
Dewpoint
-16°C / 3°F
Humidity
67%
Altimeter
29.77" Hg
Pressure
1010.1 hPa